Terminal Aerodrome Forecast
Issued by NWS

Home | Current Version | Previous Version | Text Only | Print | Product List | Glossary On
Versions: 1 2 3 4 5 6 7 8 9 10 11 12 13 14 15
000
FTUS42 KTBW 051141
TAFPGD
TAF
KPGD 051141Z 0512/0612 VRB03KT P6SM FEW020 SCT250
     FM051400 04005KT P6SM SCT025 SCT250
     FM051800 30007KT P6SM VCTS SCT035CB SCT120 BKN250
     FM052100 30007KT P6SM SCT040 SCT120 BKN250
     FM060000 06004KT P6SM VCTS SCT040CB SCT120 BKN250
     FM060400 VRB03KT P6SM SCT250=

USA.gov is the U.S. government's official web portal to all federal, state and local government web resources and services.